Time;durP1;ratioP1;P1;durP2;ratioP2;P2;SDS_P1;SDS_P2;PMS_P1;PMS_P2;Temp;Humidity;BMP_temperature;BMP_pressure;BME280_temperature;BME280_humidity;BME280_pressure;Samples;Min_cycle;Max_cycle;Signal;HPM_P1;HPM_P2
2023/06/19 07:36:17;;;;;;;14.65;3.83;;;;;;;21.84;33.25;99762.44;6162849;22;20024;-90
2023/06/19 07:38:45;;;;;;;11.95;3.92;;;;;;;21.74;31.17;99738.84;6151009;23;20028;-90
2023/06/19 07:41:29;;;;;;;14.20;3.58;;;;;;;21.32;31.18;99685.03;6156369;23;20112;-93
2023/06/19 07:43:56;;;;;;;30.40;4.80;;;;;;;21.71;31.19;99732.03;6182557;23;20017;-90
2023/06/19 07:46:21;;;;;;;26.60;4.30;;;;;;;21.88;31.53;99746.56;6150957;23;20023;-91
2023/06/19 07:48:48;;;;;;;5.77;3.07;;;;;;;21.69;30.16;99720.50;6147132;23;20024;-90
2023/06/19 07:51:17;;;;;;;10.73;3.78;;;;;;;21.73;32.11;99721.34;6166099;23;20265;-89
2023/06/19 07:53:46;;;;;;;22.25;3.70;;;;;;;21.87;31.53;99756.91;6162876;23;20103;-86
2023/06/19 07:56:17;;;;;;;8.52;3.40;;;;;;;21.80;30.69;99738.13;6188036;23;20016;-89
2023/06/19 07:58:43;;;;;;;14.07;3.75;;;;;;;21.97;31.04;99764.59;6187548;23;20021;-89
2023/06/19 08:01:11;;;;;;;9.20;3.50;;;;;;;21.69;29.66;99728.03;6165624;23;20021;-91
2023/06/19 08:03:37;;;;;;;9.83;3.20;;;;;;;21.53;29.19;99742.16;6144805;23;20017;-89
2023/06/19 08:06:03;;;;;;;20.20;3.83;;;;;;;21.26;29.78;99716.31;6116935;23;20103;-87
2023/06/19 08:08:30;;;;;;;16.90;4.10;;;;;;;21.33;29.56;99741.44;6198936;23;20011;-94
2023/06/19 08:11:21;;;;;;;13.18;3.55;;;;;;;21.57;30.40;99768.03;6144639;23;20781;-92
2023/06/19 08:14:09;;;;;;;7.53;3.35;;;;;;;21.45;28.91;99771.03;6094299;23;20013;-92
2023/06/19 08:16:43;;;;;;;13.75;3.58;;;;;;;21.07;29.19;99731.91;6065536;23;20511;-94
2023/06/19 08:19:13;;;;;;;10.70;3.50;;;;;;;21.17;29.72;99755.50;6062138;23;20053;-94
2023/06/19 08:25:32;;;;;;;17.30;4.30;;;;;;;21.49;30.65;99736.53;6156199;23;20021;-90
2023/06/19 08:27:58;;;;;;;11.77;3.77;;;;;;;21.44;31.13;99713.81;6132748;23;20084;-85
2023/06/19 08:30:25;;;;;;;47.37;5.53;;;;;;;21.50;30.10;99724.22;6130305;23;20029;-86
2023/06/19 08:32:52;;;;;;;15.93;3.63;;;;;;;21.51;30.70;99705.56;6133290;23;20025;-89
2023/06/19 08:35:18;;;;;;;46.10;4.47;;;;;;;21.54;30.58;99686.13;6158228;23;20466;-89
2023/06/19 08:41:45;;;;;;;19.95;4.45;;;;;;;21.62;30.04;99700.13;6153463;23;20017;-89
2023/06/19 08:44:11;;;;;;;21.67;5.40;;;;;;;21.76;29.64;99739.28;6134578;23;20537;-90
2023/06/19 08:46:37;;;;;;;20.17;4.23;;;;;;;21.49;29.16;99716.25;6136610;23;20249;-89
2023/06/19 08:49:06;;;;;;;8.23;3.60;;;;;;;21.61;29.42;99751.38;6135313;23;20017;-86
2023/06/19 08:51:32;;;;;;;22.73;3.88;;;;;;;21.50;32.32;99729.00;6136376;23;20024;-88
2023/06/19 08:54:09;;;;;;;9.10;3.35;;;;;;;21.87;30.61;99709.59;6112988;23;20024;-89
2023/06/19 08:56:39;;;;;;;5.25;2.90;;;;;;;21.85;29.99;99694.44;6137446;23;20024;-85
2023/06/19 08:59:20;;;;;;;8.57;3.20;;;;;;;21.96;28.15;99695.38;6192837;23;20017;-86
2023/06/19 09:01:54;;;;;;;13.38;4.10;;;;;;;22.20;28.78;99730.28;6119835;23;20095;-90
2023/06/19 09:04:32;;;;;;;19.48;4.13;;;;;;;22.16;28.23;99699.59;6100066;23;20021;-90
2023/06/19 09:07:02;;;;;;;21.27;4.85;;;;;;;22.06;27.38;99700.25;6097448;23;20466;-91
2023/06/19 09:09:36;;;;;;;8.93;5.15;;;;;;;22.15;27.62;99719.44;6141926;23;20108;-83
2023/06/19 09:12:10;;;;;;;16.83;4.55;;;;;;;21.81;27.56;99678.50;6190612;23;20025;-87
2023/06/19 09:14:44;;;;;;;11.07;4.20;;;;;;;21.98;27.81;99704.13;6140193;23;20017;-88
2023/06/19 09:17:17;;;;;;;18.35;4.65;;;;;;;21.94;26.87;99717.22;6164314;23;20020;-88
2023/06/19 09:20:09;;;;;;;12.50;4.18;;;;;;;22.26;28.49;99723.19;6189847;23;20025;-88
2023/06/19 09:22:35;;;;;;;23.92;5.10;;;;;;;22.50;29.67;99707.91;6189860;23;20024;-92
2023/06/19 09:25:01;;;;;;;14.73;5.05;;;;;;;22.81;27.48;99720.50;6142097;23;20012;-87
2023/06/19 09:27:33;;;;;;;21.92;7.00;;;;;;;22.70;25.62;99720.41;6190130;23;20051;-86
2023/06/19 09:30:00;;;;;;;23.60;7.00;;;;;;;22.52;26.40;99708.31;6158379;23;20438;-88
2023/06/19 09:32:28;;;;;;;23.98;7.20;;;;;;;22.45;25.86;99713.81;6167923;23;20079;-88
2023/06/19 09:35:00;;;;;;;66.50;7.55;;;;;;;21.88;26.81;99644.38;6148178;23;20020;-87
2023/06/19 09:37:30;;;;;;;18.85;5.82;;;;;;;21.94;26.59;99644.84;6223064;23;20109;-88
2023/06/19 09:40:11;;;;;;;23.60;5.50;;;;;;;22.36;28.17;99679.91;6195312;23;20018;-87
2023/06/19 09:42:39;;;;;;;18.42;4.95;;;;;;;22.77;29.31;99713.31;6219569;23;20059;-87
2023/06/19 09:45:12;;;;;;;42.60;5.95;;;;;;;22.84;26.99;99705.00;6190101;23;20012;-89
2023/06/19 09:47:38;;;;;;;18.00;4.85;;;;;;;22.82;26.23;99712.97;6215061;23;20017;-88
2023/06/19 09:50:06;;;;;;;26.85;6.18;;;;;;;22.89;27.09;99705.44;6216755;23;20023;-90
2023/06/19 09:52:33;;;;;;;17.10;4.97;;;;;;;22.46;26.54;99640.22;6172461;23;20086;-90
2023/06/19 09:55:06;;;;;;;19.67;4.28;;;;;;;22.69;24.97;99679.81;6228561;23;20023;-90
2023/06/19 09:57:34;;;;;;;15.95;4.50;;;;;;;22.77;24.36;99668.69;6197017;23;20036;-88
2023/06/19 10:00:12;;;;;;;12.00;4.38;;;;;;;23.02;24.61;99694.81;6223061;23;20087;-88
2023/06/19 10:02:46;;;;;;;14.07;4.47;;;;;;;22.79;25.49;99658.78;6180875;23;20048;-91
2023/06/19 10:05:38;;;;;;;15.23;4.13;;;;;;;23.07;23.13;99693.63;6204603;23;20079;-92
2023/06/19 10:08:42;;;;;;;9.52;4.05;;;;;;;22.63;23.52;99635.97;6210492;23;20017;-93
2023/06/19 10:11:17;;;;;;;26.25;4.45;;;;;;;22.66;23.99;99644.34;6121862;23;20018;-93
2023/06/19 10:14:19;;;;;;;12.13;3.58;;;;;;;22.88;23.66;99677.94;6145785;23;20497;-93
2023/06/19 10:16:53;;;;;;;13.43;3.63;;;;;;;22.65;22.65;99623.25;6121432;23;20068;-93
2023/06/19 10:19:22;;;;;;;29.05;4.15;;;;;;;23.24;24.10;99686.56;6121795;23;20049;-92
2023/06/19 10:21:53;;;;;;;17.55;3.70;;;;;;;22.88;23.87;99608.25;6145346;23;20033;-94
2023/06/19 10:24:24;;;;;;;12.93;3.65;;;;;;;23.27;22.37;99669.06;6123072;23;20018;-92
2023/06/19 10:27:10;;;;;;;8.27;3.50;;;;;;;23.30;23.85;99676.66;6127406;23;20086;-94
2023/06/19 10:42:48;;;;;;;9.43;3.60;;;;;;;22.75;23.99;99591.06;6212666;22;20016;-91
2023/06/19 10:45:26;;;;;;;14.38;3.78;;;;;;;23.40;23.67;99667.53;6176490;23;20033;-92
2023/06/19 10:51:46;;;;;;;23.85;4.22;;;;;;;23.87;23.31;99662.94;6209662;22;20043;-92
2023/06/19 10:54:23;;;;;;;;;;;;;;;23.81;23.01;99667.34;6182993;23;20013;-91
2023/06/19 10:57:58;;;;;;;7.38;3.40;;;;;;;23.42;22.86;99615.72;6207785;23;19940;-94
2023/06/19 11:00:31;;;;;;;10.95;4.13;;;;;;;23.04;23.29;99597.59;6180053;23;20013;-93
2023/06/19 11:13:22;;;;;;;17.90;4.28;;;;;;;24.25;22.97;99629.94;6202060;23;20025;-92
2023/06/19 11:15:50;;;;;;;9.35;4.05;;;;;;;24.29;22.44;99614.75;6197780;23;20017;-90
2023/06/19 11:18:17;;;;;;;11.40;3.78;;;;;;;24.36;24.07;99644.69;6195307;23;20025;-89
2023/06/19 11:20:51;;;;;;;13.95;3.72;;;;;;;24.24;22.47;99600.38;6164842;23;20601;-90
2023/06/19 11:23:28;;;;;;;14.35;3.63;;;;;;;24.34;24.96;99603.19;6151500;23;20012;-92
2023/06/19 11:26:05;;;;;;;27.13;4.35;;;;;;;24.54;21.75;99617.59;6204416;23;20017;-90
2023/06/19 11:28:34;;;;;;;6.97;3.50;;;;;;;24.49;22.97;99578.84;6170448;23;20076;-91
2023/06/19 11:31:03;;;;;;;6.40;3.50;;;;;;;24.72;23.33;99600.78;6166966;23;20358;-92
2023/06/19 11:33:42;;;;;;;14.48;4.07;;;;;;;24.50;22.42;99558.09;6170800;23;20027;-90
2023/06/19 11:36:08;;;;;;;19.13;4.78;;;;;;;24.72;25.20;99574.81;6139627;23;20040;-91
2023/06/19 11:38:40;;;;;;;14.68;3.97;;;;;;;25.18;22.04;99607.50;6192051;23;20017;-91
2023/06/19 11:41:07;;;;;;;14.38;3.88;;;;;;;25.39;22.24;99612.22;6167493;23;20016;-89
2023/06/19 11:43:35;;;;;;;12.30;3.55;;;;;;;25.09;20.64;99603.09;6142399;23;20104;-90
2023/06/19 11:46:06;;;;;;;7.30;3.40;;;;;;;24.99;21.92;99603.91;6193897;23;20043;-92
2023/06/19 11:48:53;;;;;;;14.45;4.30;;;;;;;24.70;22.10;99529.69;6172829;23;20080;-93
2023/06/19 11:51:25;;;;;;;35.03;4.38;;;;;;;25.27;21.12;99605.06;6178258;23;20072;-89
2023/06/19 11:53:52;;;;;;;12.15;4.10;;;;;;;24.99;21.36;99586.34;6147886;23;20013;-91
2023/06/19 11:56:18;;;;;;;15.75;4.15;;;;;;;24.93;21.43;99565.56;6167457;23;20458;-89
2023/06/19 11:58:45;;;;;;;15.15;4.30;;;;;;;25.04;21.81;99595.13;6190189;23;20100;-91
2023/06/19 12:01:11;;;;;;;14.80;3.90;;;;;;;24.55;20.66;99535.31;6193824;23;20012;-93
2023/06/19 12:03:55;;;;;;;;;;;;;;;;;;;;;
2023/06/19 12:07:08;;;;;;;15.02;3.95;;;;;;;25.02;19.76;99555.56;6161755;23;20032;-91
2023/06/19 12:09:39;;;;;;;23.52;4.57;;;;;;;24.74;21.16;99569.63;6135439;23;20040;-90
2023/06/19 12:12:06;;;;;;;7.00;3.70;;;;;;;24.83;22.81;99548.44;6160192;23;20021;-89
2023/06/19 12:14:32;;;;;;;31.42;4.80;;;;;;;25.03;20.27;99564.75;6110740;23;20028;-89
2023/06/19 12:16:58;;;;;;;26.52;4.53;;;;;;;24.92;19.88;99539.63;6109187;23;20013;-93
2023/06/19 12:19:26;;;;;;;17.25;4.68;;;;;;;25.23;20.66;99567.91;6136566;23;20040;-93
2023/06/19 12:25:46;;;;;;;10.15;3.92;;;;;;;24.74;18.92;99506.13;6190210;23;20053;-93
2023/06/19 12:34:58;;;;;;;11.18;4.07;;;;;;;24.88;19.22;99507.28;6162443;23;20472;-91
2023/06/19 12:40:53;;;;;;;11.23;3.53;;;;;;;25.44;18.67;99553.81;6224747;22;20024;-92
2023/06/19 12:46:54;;;;;;;39.03;4.22;;;;;;;25.65;21.02;99558.47;6186193;23;20029;-92
2023/06/19 12:49:21;;;;;;;15.98;4.13;;;;;;;25.82;19.69;99558.81;6129866;23;20025;-93
2023/06/19 12:51:51;;;;;;;51.85;4.90;;;;;;;25.77;21.66;99520.81;6098755;23;20486;-94
2023/06/19 12:54:19;;;;;;;11.25;3.72;;;;;;;25.85;20.50;99480.38;6157498;23;20029;-93
2023/06/19 12:56:46;;;;;;;23.95;4.65;;;;;;;26.07;19.40;99472.59;6174987;23;20016;-94
2023/06/19 12:59:13;;;;;;;18.75;3.88;;;;;;;26.02;18.90;99482.22;6200782;23;20017;-92
2023/06/19 13:01:41;;;;;;;24.25;4.45;;;;;;;26.25;19.64;99501.22;6170506;23;20137;-95
2023/06/19 13:04:14;;;;;;;17.65;4.63;;;;;;;26.15;18.95;99490.91;6170830;23;20016;-91
2023/06/19 13:07:24;;;;;;;32.15;5.65;;;;;;;26.27;19.15;99548.47;6176374;23;20000;-95
2023/06/19 13:13:15;;;;;;;19.60;4.43;;;;;;;25.73;19.90;99492.06;6133920;23;20018;-92
2023/06/19 13:15:54;;;;;;;20.35;4.50;;;;;;;25.98;20.76;99543.09;6064537;23;20018;-95
2023/06/19 13:18:20;;;;;;;12.82;4.00;;;;;;;26.08;19.33;99535.81;6081308;23;20029;-92
2023/06/19 13:20:50;;;;;;;17.50;5.03;;;;;;;25.62;19.38;99485.72;6111915;23;20018;-92
2023/06/19 13:23:19;;;;;;;9.85;4.20;;;;;;;25.44;19.11;99489.44;6088496;23;20017;-94
2023/06/19 13:25:52;;;;;;;10.88;4.18;;;;;;;25.48;19.83;99472.63;6084713;23;20014;-93
2023/06/19 13:28:18;;;;;;;19.88;4.55;;;;;;;25.90;19.57;99502.34;6086446;23;20018;-89
2023/06/19 13:30:59;;;;;;;20.60;3.92;;;;;;;25.92;19.40;99468.31;6106595;23;20022;-90
2023/06/19 13:33:50;;;;;;;25.25;5.07;;;;;;;26.27;19.67;99509.22;6109657;23;20018;-92
2023/06/19 13:36:26;;;;;;;15.50;4.50;;;;;;;26.21;20.15;99492.06;6061035;23;20021;-93
2023/06/19 13:38:53;;;;;;;9.00;3.93;;;;;;;26.22;20.44;99467.63;6059784;23;20022;-93
2023/06/19 13:41:39;;;;;;;14.80;4.97;;;;;;;26.52;20.69;99478.16;6113752;23;20261;-92
2023/06/19 13:44:05;;;;;;;15.75;4.13;;;;;;;26.67;19.91;99471.19;6105861;23;20021;-90
2023/06/19 13:47:15;;;;;;;25.52;4.22;;;;;;;26.83;19.23;99500.66;6195620;23;20017;-93
2023/06/19 13:49:52;;;;;;;25.05;4.55;;;;;;;26.50;18.21;99493.81;6025791;23;20051;-92
2023/06/19 13:52:36;;;;;;;14.82;4.53;;;;;;;25.83;18.49;99414.75;6024746;23;20537;-91
2023/06/19 13:55:10;;;;;;;15.70;3.88;;;;;;;25.90;18.81;99453.94;6049901;23;20007;-92
2023/06/19 13:57:37;;;;;;;10.93;3.80;;;;;;;26.05;18.51;99477.00;6003628;23;20023;-92
2023/06/19 14:00:06;;;;;;;26.42;5.00;;;;;;;26.10;18.61;99471.75;6001343;23;20027;-91
2023/06/19 14:02:43;;;;;;;26.00;4.82;;;;;;;26.09;18.55;99469.34;6026167;23;19995;-92
2023/06/19 14:05:09;;;;;;;14.02;4.90;;;;;;;26.21;19.24;99461.22;6025748;23;20070;-90
2023/06/19 14:07:40;;;;;;;13.75;4.03;;;;;;;26.15;19.06;99434.88;6051615;23;20019;-93
2023/06/19 14:10:09;;;;;;;20.77;4.38;;;;;;;26.25;18.68;99464.00;6029534;23;20024;-90
2023/06/19 14:13:17;;;;;;;11.20;4.40;;;;;;;25.70;18.77;99406.06;6125896;23;20025;-92
2023/06/19 14:15:51;;;;;;;9.25;3.83;;;;;;;25.83;19.15;99418.38;6139860;23;20025;-90
2023/06/19 14:18:19;;;;;;;18.38;4.03;;;;;;;26.08;18.69;99434.94;6149603;23;20529;-91
2023/06/19 14:20:57;;;;;;;7.18;4.05;;;;;;;26.25;18.53;99472.41;6120922;23;20021;-93
2023/06/19 14:23:29;;;;;;;9.80;3.60;;;;;;;26.13;19.46;99436.50;6144885;23;20014;-92
2023/06/19 14:25:59;;;;;;;11.57;4.32;;;;;;;26.38;19.43;99484.69;6144674;23;20025;-89
2023/06/19 14:28:25;;;;;;;13.38;4.00;;;;;;;25.97;19.12;99440.66;6166503;23;20025;-90
2023/06/19 14:30:51;;;;;;;11.27;4.00;;;;;;;26.44;19.90;99485.81;6138343;23;20017;-87
2023/06/19 14:33:16;;;;;;;17.48;3.72;;;;;;;26.33;19.50;99467.53;6166172;23;20028;-89
2023/06/19 14:35:45;;;;;;;15.70;4.40;;;;;;;26.36;19.76;99483.53;6139068;23;20025;-89
2023/06/19 14:38:15;;;;;;;17.58;4.15;;;;;;;26.07;19.13;99444.56;6174743;23;20005;-88
2023/06/19 14:40:42;;;;;;;21.83;4.40;;;;;;;26.21;19.30;99474.44;6209964;23;20085;-89
2023/06/19 14:43:10;;;;;;;12.23;4.30;;;;;;;26.41;19.53;99469.84;6175159;23;20044;-85
2023/06/19 14:45:39;;;;;;;17.38;4.63;;;;;;;26.52;19.26;99457.72;6187323;23;20075;-86
2023/06/19 14:48:05;;;;;;;11.55;4.20;;;;;;;26.37;19.29;99465.47;6190189;23;20028;-88
2023/06/19 14:50:33;;;;;;;10.57;3.95;;;;;;;26.42;19.97;99449.03;6190926;23;20021;-88
2023/06/19 14:53:00;;;;;;;12.48;3.95;;;;;;;26.36;20.72;99442.28;6185312;23;20025;-88
2023/06/19 14:55:26;;;;;;;8.50;4.20;;;;;;;26.34;20.39;99452.31;6162053;23;20021;-87
2023/06/19 14:57:52;;;;;;;26.45;4.03;;;;;;;26.40;20.05;99450.63;6187546;23;20021;-86
2023/06/19 15:00:18;;;;;;;13.32;4.30;;;;;;;26.33;19.68;99431.09;6136972;23;20044;-89
2023/06/19 15:02:45;;;;;;;150.05;26.73;;;;;;;26.30;19.08;99423.53;6161650;23;20064;-89
2023/06/19 15:05:11;;;;;;;51.17;6.20;;;;;;;26.17;19.04;99412.06;6189099;23;20025;-88
2023/06/19 15:07:37;;;;;;;18.50;3.95;;;;;;;26.02;19.04;99403.78;6185486;23;20017;-87
2023/06/19 15:10:05;;;;;;;18.92;3.90;;;;;;;25.97;19.23;99412.63;6163390;23;20083;-88
2023/06/19 15:12:34;;;;;;;108.43;7.20;;;;;;;26.01;19.36;99402.19;6195893;23;20454;-87
2023/06/19 15:15:12;;;;;;;19.80;3.78;;;;;;;25.88;19.09;99380.72;6144286;23;20451;-89
2023/06/19 15:17:41;;;;;;;9.23;3.40;;;;;;;26.06;19.26;99425.34;6144014;23;20021;-87
2023/06/19 15:20:08;;;;;;;18.17;4.30;;;;;;;26.17;19.76;99451.28;6147882;23;20016;-87
2023/06/19 15:22:36;;;;;;;27.27;4.45;;;;;;;26.10;20.15;99448.56;6145535;23;20021;-87
2023/06/19 15:25:03;;;;;;;15.85;4.28;;;;;;;25.78;20.07;99408.38;6193084;23;20021;-89
2023/06/19 15:27:29;;;;;;;20.00;4.55;;;;;;;25.81;20.02;99425.59;6139278;23;20037;-87
2023/06/19 15:29:55;;;;;;;8.60;3.88;;;;;;;25.76;20.75;99415.59;6189635;23;20025;-88
2023/06/19 15:32:21;;;;;;;16.52;4.63;;;;;;;25.64;20.65;99393.72;6166653;23;20052;-90
2023/06/19 15:34:48;;;;;;;14.77;3.92;;;;;;;25.67;21.76;99426.50;6144413;23;20021;-89
2023/06/19 15:37:14;;;;;;;;;;;;;;;25.74;20.49;99443.22;6186684;23;20017;-89
2023/06/19 15:39:41;;;;;;;20.52;4.28;;;;;;;25.70;20.74;99434.06;6161899;23;19916;-89
2023/06/19 15:42:08;;;;;;;12.13;3.60;;;;;;;25.35;20.81;99384.75;6113076;23;20069;-89
2023/06/19 15:44:33;;;;;;;9.02;3.53;;;;;;;25.40;20.50;99401.13;6189899;23;20017;-89
2023/06/19 15:46:59;;;;;;;16.48;4.00;;;;;;;25.75;21.19;99447.63;6135187;23;20021;-86
2023/06/19 15:49:26;;;;;;;10.27;4.05;;;;;;;25.57;20.70;99438.59;6135367;23;20017;-90
2023/06/19 15:51:52;;;;;;;11.93;3.90;;;;;;;25.45;21.23;99431.47;6136654;23;20059;-88
2023/06/19 15:54:19;;;;;;;11.80;3.53;;;;;;;25.52;21.00;99437.78;6161659;23;20364;-89
2023/06/19 15:56:45;;;;;;;45.90;5.93;;;;;;;25.29;21.24;99429.16;6185670;23;20017;-85
2023/06/19 15:59:11;;;;;;;10.98;3.55;;;;;;;25.20;20.83;99421.25;6186384;23;20016;-89
2023/06/19 16:01:37;;;;;;;15.98;3.75;;;;;;;25.01;21.15;99410.53;6184070;23;20021;-93
2023/06/19 16:04:03;;;;;;;13.80;3.90;;;;;;;25.10;21.22;99413.69;6163930;23;20025;-89
2023/06/19 16:06:29;;;;;;;5.07;3.17;;;;;;;25.09;20.89;99448.44;6162887;23;20036;-88
2023/06/19 16:08:56;;;;;;;24.13;3.95;;;;;;;24.74;21.52;99421.47;6187746;23;20021;-90
2023/06/19 16:11:25;;;;;;;19.85;4.18;;;;;;;24.89;21.81;99464.91;6163019;23;20375;-90
2023/06/19 16:13:51;;;;;;;12.30;3.63;;;;;;;24.74;21.52;99455.00;6140520;23;20024;-89
2023/06/19 16:16:18;;;;;;;15.93;3.42;;;;;;;24.59;22.66;99455.03;6140180;23;20021;-91
2023/06/19 16:18:45;;;;;;;9.95;3.55;;;;;;;24.48;22.21;99451.50;6169258;23;20474;-93
2023/06/19 16:21:11;;;;;;;20.20;4.20;;;;;;;24.20;22.39;99443.16;6194687;23;20021;-92
2023/06/19 16:23:38;;;;;;;9.32;3.25;;;;;;;24.00;23.31;99448.34;6169984;23;20103;-91
2023/06/19 16:26:04;;;;;;;15.13;3.53;;;;;;;23.87;23.43;99445.19;6189411;23;20013;-89
2023/06/19 16:28:31;;;;;;;9.98;3.20;;;;;;;23.81;22.95;99444.00;6191350;23;20077;-90
2023/06/19 16:30:57;;;;;;;;;;;;;;;23.87;23.12;99470.31;6144623;23;20024;-93
2023/06/19 16:33:38;;;;;;;13.23;3.58;;;;;;;23.43;23.01;99424.00;6180538;23;19904;-93
2023/06/19 16:36:04;;;;;;;17.95;3.40;;;;;;;23.25;23.76;99420.41;6160830;23;20009;-93
2023/06/19 16:38:32;;;;;;;38.97;4.68;;;;;;;23.49;23.75;99455.91;6185706;23;20021;-93
2023/06/19 16:40:58;;;;;;;8.23;3.77;;;;;;;23.20;23.42;99441.91;6123334;23;20025;-91
2023/06/19 16:43:24;;;;;;;13.95;3.45;;;;;;;23.32;23.86;99473.44;6102528;23;20288;-88
2023/06/19 16:45:50;;;;;;;10.30;3.38;;;;;;;23.02;23.94;99431.91;6124957;23;20005;-92
2023/06/19 16:48:16;;;;;;;18.30;4.77;;;;;;;23.24;23.70;99472.59;6146157;23;20581;-92
2023/06/19 16:50:42;;;;;;;16.77;3.75;;;;;;;22.82;25.35;99404.34;6109572;23;20048;-93
2023/06/19 16:53:08;;;;;;;8.77;3.08;;;;;;;22.97;24.31;99441.44;6112788;23;20080;-90
2023/06/19 16:55:34;;;;;;;12.70;3.70;;;;;;;22.85;24.78;99442.59;6114556;23;20022;-93
2023/06/19 16:58:00;;;;;;;15.82;4.60;;;;;;;22.88;24.98;99460.50;6088177;23;20024;-90
2023/06/19 17:00:26;;;;;;;11.47;4.50;;;;;;;22.61;25.18;99423.75;6109769;23;20398;-93
2023/06/19 17:02:55;;;;;;;15.75;4.55;;;;;;;22.23;25.67;99373.84;6112203;23;20022;-90
2023/06/19 17:05:26;;;;;;;21.80;4.22;;;;;;;22.62;25.74;99436.53;6109118;23;20024;-88
2023/06/19 17:07:52;;;;;;;10.35;4.03;;;;;;;22.69;25.96;99470.00;6108925;23;20025;-90
2023/06/19 17:10:22;;;;;;;7.07;3.70;;;;;;;22.49;26.18;99461.13;6083023;23;20045;-94
2023/06/19 17:12:49;;;;;;;23.17;4.20;;;;;;;22.25;26.29;99431.94;6136424;23;20097;-91
2023/06/19 17:15:19;;;;;;;14.35;3.80;;;;;;;22.13;26.49;99407.19;6135787;23;20024;-89
2023/06/19 17:17:46;;;;;;;45.85;4.32;;;;;;;22.28;26.36;99451.47;6141271;23;20013;-90
2023/06/19 17:20:13;;;;;;;12.20;3.30;;;;;;;22.22;26.20;99449.44;6160729;23;20109;-90
2023/06/19 17:22:40;;;;;;;7.95;3.65;;;;;;;21.79;26.82;99394.25;6142715;23;20028;-91
2023/06/19 17:25:07;;;;;;;11.00;3.67;;;;;;;21.68;26.66;99381.44;6193896;23;20048;-91
2023/06/19 17:27:33;;;;;;;16.15;3.63;;;;;;;21.86;27.03;99412.19;6141869;23;20866;-90
2023/06/19 17:30:02;;;;;;;133.38;9.18;;;;;;;21.78;26.21;99405.75;6197099;23;20021;-93
2023/06/19 17:32:31;;;;;;;9.93;3.08;;;;;;;22.19;26.44;99475.28;6198841;23;20778;-93
2023/06/19 17:34:57;;;;;;;9.63;3.28;;;;;;;21.73;26.20;99414.47;6165823;23;20020;-92
2023/06/19 17:37:23;;;;;;;9.60;4.20;;;;;;;21.76;26.32;99422.84;6187800;23;20375;-91
2023/06/19 17:39:50;;;;;;;13.18;3.70;;;;;;;21.60;25.97;99416.75;6163887;23;20017;-89
2023/06/19 17:42:16;;;;;;;16.10;3.88;;;;;;;21.91;26.05;99465.47;6137344;23;20016;-92
2023/06/19 17:44:42;;;;;;;8.32;3.97;;;;;;;21.34;26.12;99376.78;6145223;23;20029;-90
2023/06/19 17:47:08;;;;;;;9.27;3.50;;;;;;;21.63;26.27;99438.25;6169762;23;20048;-93
2023/06/19 17:49:37;;;;;;;11.10;3.08;;;;;;;21.64;26.36;99441.81;6161256;23;20280;-93
2023/06/19 17:52:03;;;;;;;13.00;4.05;;;;;;;21.46;26.39;99427.75;6143681;23;20094;-91
2023/06/19 17:54:55;;;;;;;8.68;3.20;;;;;;;21.72;26.25;99483.25;6136361;23;20017;-88
2023/06/19 17:57:22;;;;;;;9.60;3.28;;;;;;;21.57;26.75;99473.94;6163926;23;20104;-90
2023/06/19 18:00:13;;;;;;;10.45;3.53;;;;;;;21.56;27.04;99483.47;6165334;23;20257;-89
2023/06/19 18:02:39;;;;;;;7.63;3.25;;;;;;;21.55;26.87;99497.75;6165933;23;20021;-90
2023/06/19 18:05:06;;;;;;;11.83;4.50;;;;;;;21.11;27.14;99429.75;6136934;23;20068;-89
2023/06/19 18:14:07;;;;;;;15.25;3.20;;;;;;;20.76;28.28;99407.13;6230324;23;20024;-93
2023/06/19 18:16:53;;;;;;;18.60;3.83;;;;;;;21.27;28.39;99501.03;6186502;23;20025;-90
2023/06/19 18:19:20;;;;;;;5.68;2.95;;;;;;;20.72;29.21;99409.06;6193891;23;20025;-92
2023/06/19 18:21:47;;;;;;;20.23;3.63;;;;;;;20.77;28.78;99428.19;6130909;23;20020;-91
2023/06/19 18:24:15;;;;;;;6.28;3.50;;;;;;;20.73;28.99;99425.38;6198727;23;20016;-90
2023/06/19 18:26:42;;;;;;;13.65;3.40;;;;;;;21.07;28.97;99455.94;6167892;23;20017;-88
2023/06/19 18:29:09;;;;;;;5.27;3.00;;;;;;;20.74;29.11;99420.63;6169544;23;20020;-91
2023/06/19 18:35:41;;;;;;;6.40;3.78;;;;;;;20.68;29.43;99422.91;6061459;23;20019;-95
2023/06/19 18:38:08;;;;;;;14.50;3.40;;;;;;;21.14;29.58;99514.38;6022469;23;20026;-91
2023/06/19 18:40:41;;;;;;;13.15;3.90;;;;;;;20.86;29.58;99471.19;5999934;23;20450;-90
2023/06/19 18:43:07;;;;;;;12.93;3.55;;;;;;;20.82;29.95;99473.09;6007805;23;20023;-90
2023/06/19 18:45:34;;;;;;;9.03;4.00;;;;;;;20.64;30.32;99449.84;6138043;23;20081;-91
2023/06/19 18:48:00;;;;;;;16.15;4.30;;;;;;;20.47;30.56;99434.53;6114874;23;20018;-90
2023/06/19 19:03:24;;;;;;;13.95;3.60;;;;;;;20.59;32.40;99514.84;6135619;23;20014;-90
2023/06/19 19:05:50;;;;;;;12.53;3.70;;;;;;;20.18;32.28;99461.91;6082368;23;20022;-89
2023/06/19 19:08:41;;;;;;;15.93;4.13;;;;;;;19.87;34.50;99435.25;6106796;23;20052;-88
2023/06/19 19:11:10;;;;;;;18.57;5.40;;;;;;;20.24;34.33;99517.09;6134149;23;20423;-87
2023/06/19 19:13:40;;;;;;;11.13;4.43;;;;;;;19.63;34.52;99430.06;6105678;23;20057;-89
2023/06/19 19:16:06;;;;;;;14.35;5.07;;;;;;;19.81;33.56;99486.69;6113198;23;20401;-90
2023/06/19 19:18:32;;;;;;;18.83;4.50;;;;;;;19.69;34.14;99482.13;6130601;23;20028;-87
2023/06/19 19:20:58;;;;;;;19.37;4.77;;;;;;;19.85;34.90;99508.94;6186548;23;20513;-88
2023/06/19 19:23:25;;;;;;;22.87;4.73;;;;;;;19.79;34.32;99510.41;6187350;23;20044;-86
2023/06/19 19:25:51;;;;;;;16.90;4.00;;;;;;;19.75;34.34;99501.25;6162629;23;20044;-87
2023/06/19 19:28:17;;;;;;;16.70;4.17;;;;;;;19.57;34.38;99478.69;6152068;23;20025;-86
2023/06/19 19:30:44;;;;;;;13.07;3.97;;;;;;;19.70;34.58;99494.00;6159715;23;20497;-88
2023/06/19 19:33:10;;;;;;;9.27;3.83;;;;;;;19.38;34.29;99452.63;6113105;23;20487;-88
2023/06/19 19:35:36;;;;;;;15.27;3.77;;;;;;;19.52;34.65;99479.00;6110625;23;20056;-86
2023/06/19 19:38:02;;;;;;;31.10;4.55;;;;;;;19.52;35.13;99482.59;6161192;23;20079;-85
2023/06/19 19:40:29;;;;;;;7.30;3.50;;;;;;;19.32;34.78;99459.66;6163954;23;20390;-88
2023/06/19 19:42:54;;;;;;;12.02;3.67;;;;;;;19.18;34.85;99432.47;6135977;23;20075;-89
2023/06/19 19:45:20;;;;;;;7.50;3.27;;;;;;;19.23;34.74;99439.69;6127297;23;20025;-90
2023/06/19 19:47:46;;;;;;;5.35;3.50;;;;;;;19.40;35.17;99472.47;6132746;23;20336;-89
2023/06/19 19:50:12;;;;;;;20.37;4.23;;;;;;;19.31;35.27;99458.06;6108256;23;20052;-90
2023/06/19 19:52:38;;;;;;;17.57;4.13;;;;;;;19.51;35.23;99491.28;6109348;23;20435;-89
2023/06/19 19:55:06;;;;;;;16.25;3.55;;;;;;;19.23;35.01;99461.84;6083206;23;20391;-88
2023/06/19 19:57:31;;;;;;;16.60;3.80;;;;;;;19.34;35.24;99470.38;6129338;23;20020;-90
2023/06/19 19:59:57;;;;;;;9.33;3.70;;;;;;;19.27;36.44;99464.69;6084503;23;20017;-91
2023/06/19 20:02:23;;;;;;;15.15;4.05;;;;;;;19.40;37.04;99486.34;6107511;23;20021;-92
2023/06/19 20:04:51;;;;;;;11.33;3.67;;;;;;;19.09;37.38;99456.84;6163933;23;20017;-91
2023/06/19 20:07:17;;;;;;;7.50;3.70;;;;;;;18.93;36.89;99447.81;6131563;23;20172;-90
2023/06/19 20:09:57;;;;;;;8.90;3.73;;;;;;;19.27;36.35;99506.25;6135229;23;20021;-93
2023/06/19 20:12:24;;;;;;;11.10;4.07;;;;;;;18.77;37.35;99426.56;6114096;23;20026;-90
2023/06/19 20:14:51;;;;;;;57.88;5.10;;;;;;;19.06;39.33;99479.75;6093623;23;20021;-92
2023/06/19 20:17:17;;;;;;;26.38;4.45;;;;;;;18.70;38.90;99440.22;6109792;23;20041;-91
2023/06/19 20:19:46;;;;;;;15.13;3.80;;;;;;;18.66;37.88;99438.53;6091591;23;20659;-92
2023/06/19 20:22:12;;;;;;;10.05;3.95;;;;;;;18.51;39.50;99431.91;6090230;23;20464;-90
2023/06/19 20:24:38;;;;;;;13.27;4.03;;;;;;;18.66;38.77;99463.47;6087361;23;20024;-90
2023/06/19 20:27:04;;;;;;;8.82;3.33;;;;;;;18.55;38.45;99463.25;6133848;23;20072;-93
2023/06/19 20:29:30;;;;;;;19.42;7.82;;;;;;;18.78;38.98;99507.69;6111535;23;20049;-90
2023/06/19 20:31:58;;;;;;;6.40;3.53;;;;;;;18.84;38.43;99508.16;6111703;23;20024;-91
2023/06/19 20:34:24;;;;;;;12.82;3.55;;;;;;;18.64;37.79;99474.09;6085428;23;20039;-91
2023/06/19 20:36:50;;;;;;;8.63;4.27;;;;;;;18.52;38.50;99453.69;6082432;23;20352;-89
2023/06/19 20:39:19;;;;;;;12.27;3.77;;;;;;;18.80;36.83;99491.47;6125612;23;20028;-90